Time;durP1;ratioP1;P1;durP2;ratioP2;P2;SDS_P1;SDS_P2;PMS_P1;PMS_P2;Temp;Humidity;BMP_temperature;BMP_pressure;BME280_temperature;BME280_humidity;BME280_pressure;Samples;Min_cycle;Max_cycle;Signal;HPM_P1;HPM_P2
2023/03/13 00:01:46;;;;;;;11.65;8.75;;;11.90;76.00;;;;;;10984670;32;20050;-71
2023/03/13 00:07:48;;;;;;;14.35;11.05;;;11.80;76.10;;;;;;10985566;32;20014;-71
2023/03/13 00:13:54;;;;;;;12.80;11.12;;;11.70;75.90;;;;;;10984114;32;20045;-71
2023/03/13 00:19:56;;;;;;;22.90;15.48;;;11.70;75.90;;;;;;10984598;32;20011;-70
2023/03/13 00:26:02;;;;;;;14.87;11.25;;;11.70;76.40;;;;;;10972136;32;20053;-71
2023/03/13 00:32:04;;;;;;;13.82;10.80;;;11.70;75.90;;;;;;10986512;27;20030;-71
2023/03/13 00:38:07;;;;;;;21.45;16.27;;;11.50;75.80;;;;;;10983698;32;20438;-71
2023/03/13 00:44:09;;;;;;;15.32;11.38;;;11.30;76.10;;;;;;10983322;32;20023;-71
2023/03/13 00:50:12;;;;;;;12.73;10.13;;;11.30;75.70;;;;;;10983548;32;20050;-71
2023/03/13 00:56:15;;;;;;;11.35;8.73;;;11.40;75.90;;;;;;10978793;32;20056;-71
2023/03/13 01:02:18;;;;;;;17.42;11.75;;;11.20;76.00;;;;;;10969688;32;20041;-71
2023/03/13 01:08:20;;;;;;;18.85;14.80;;;11.20;76.10;;;;;;10981855;32;20057;-71
2023/03/13 01:14:22;;;;;;;11.63;8.93;;;11.20;76.50;;;;;;10983166;32;20041;-71
2023/03/13 01:20:25;;;;;;;13.48;11.20;;;11.00;76.90;;;;;;10980160;32;20328;-70
2023/03/13 01:26:29;;;;;;;14.80;11.55;;;11.00;77.20;;;;;;10968153;32;20020;-71
2023/03/13 01:32:32;;;;;;;22.58;16.12;;;11.00;77.50;;;;;;10981254;32;20062;-71
2023/03/13 01:38:38;;;;;;;22.30;14.90;;;11.00;77.80;;;;;;10981176;32;20045;-71
2023/03/13 01:44:55;;;;;;;11.75;7.60;;;10.90;77.70;;;;;;10966030;32;20027;-71
2023/03/13 01:51:02;;;;;;;24.17;18.27;;;10.80;77.60;;;;;;10980399;32;20053;-71
2023/03/13 01:57:25;;;;;;;21.00;14.50;;;10.80;77.50;;;;;;10982441;32;20049;-71
2023/03/13 02:03:28;;;;;;;22.08;16.45;;;10.80;77.10;;;;;;10980323;32;20042;-71
2023/03/13 02:09:34;;;;;;;12.32;9.27;;;11.00;77.30;;;;;;10981288;32;20030;-71
2023/03/13 02:15:36;;;;;;;18.98;14.07;;;10.90;77.20;;;;;;10978894;32;20049;-71
2023/03/13 02:21:47;;;;;;;11.48;8.45;;;10.80;77.30;;;;;;10963766;32;20335;-71
2023/03/13 02:28:03;;;;;;;11.75;9.65;;;10.70;77.30;;;;;;10979763;32;20049;-71
2023/03/13 02:34:06;;;;;;;16.75;7.97;;;10.60;77.40;;;;;;10979169;32;20041;-71
2023/03/13 02:40:13;;;;;;;14.57;11.70;;;10.60;77.20;;;;;;10980594;32;20027;-71
2023/03/13 02:46:19;;;;;;;17.77;10.48;;;10.60;77.20;;;;;;10979931;32;20037;-71
2023/03/13 02:52:26;;;;;;;13.27;9.95;;;10.70;77.40;;;;;;10979228;32;20080;-71
2023/03/13 02:58:37;;;;;;;18.60;13.80;;;10.80;77.10;;;;;;10982026;32;20010;-71
2023/03/13 03:04:40;;;;;;;20.20;11.73;;;10.80;76.90;;;;;;10986003;32;20031;-71
2023/03/13 03:10:44;;;;;;;14.90;11.30;;;10.70;76.50;;;;;;10986530;32;20006;-71
2023/03/13 03:16:47;;;;;;;16.30;12.80;;;10.70;76.90;;;;;;10986335;32;20027;-71
2023/03/13 03:22:49;;;;;;;12.75;9.43;;;10.60;77.10;;;;;;10986115;32;20041;-71
2023/03/13 03:28:52;;;;;;;10.52;8.95;;;10.70;77.10;;;;;;10972793;32;20088;-71
2023/03/13 03:34:54;;;;;;;12.57;9.20;;;10.90;77.70;;;;;;10985676;32;20030;-71
2023/03/13 03:40:58;;;;;;;11.00;8.85;;;11.10;78.40;;;;;;10985553;32;20045;-71
2023/03/13 03:47:00;;;;;;;12.85;10.00;;;11.30;79.50;;;;;;10985248;32;20014;-71
2023/03/13 03:53:04;;;;;;;13.85;10.63;;;11.50;80.10;;;;;;10986170;32;20380;-70
2023/03/13 03:59:06;;;;;;;14.27;8.68;;;11.70;80.50;;;;;;10984780;32;20314;-71
2023/03/13 04:05:09;;;;;;;15.13;10.10;;;11.80;80.90;;;;;;10984573;32;20023;-71
2023/03/13 04:11:12;;;;;;;10.15;8.60;;;12.00;81.20;;;;;;10984803;32;20022;-71
2023/03/13 04:17:15;;;;;;;11.20;8.60;;;12.00;80.70;;;;;;10984331;32;20026;-71
2023/03/13 04:23:18;;;;;;;9.13;7.43;;;12.00;80.30;;;;;;10970620;32;20023;-71
2023/03/13 04:29:21;;;;;;;8.07;7.07;;;11.80;79.80;;;;;;10984599;32;20026;-71
2023/03/13 04:35:24;;;;;;;14.70;9.90;;;11.80;80.10;;;;;;10984132;32;20332;-71
2023/03/13 04:41:26;;;;;;;9.93;6.97;;;11.70;79.70;;;;;;10980727;32;20018;-71
2023/03/13 04:47:29;;;;;;;8.38;6.93;;;11.80;80.20;;;;;;10983078;32;20015;-71
2023/03/13 04:53:33;;;;;;;9.20;6.35;;;11.80;80.80;;;;;;10969224;32;20035;-71
2023/03/13 04:59:36;;;;;;;9.48;6.97;;;11.80;81.20;;;;;;10983220;32;20392;-71
2023/03/13 05:05:38;;;;;;;8.10;6.07;;;11.90;81.30;;;;;;10982339;32;20049;-71
2023/03/13 05:11:44;;;;;;;9.43;6.70;;;11.90;81.20;;;;;;10968220;32;20400;-71
2023/03/13 05:17:46;;;;;;;11.10;8.88;;;11.80;80.70;;;;;;10965111;32;20023;-71
2023/03/13 05:23:50;;;;;;;8.52;6.87;;;11.80;81.10;;;;;;10982922;32;20014;-71
2023/03/13 05:29:52;;;;;;;7.78;6.35;;;12.00;81.00;;;;;;10982163;32;20022;-71
2023/03/13 05:35:54;;;;;;;7.87;5.65;;;11.90;80.60;;;;;;10981258;32;20011;-71
2023/03/13 05:41:58;;;;;;;7.57;6.78;;;11.50;80.90;;;;;;10981021;32;20019;-71
2023/03/13 05:48:01;;;;;;;7.22;5.05;;;11.20;81.10;;;;;;10980927;32;20010;-71
2023/03/13 05:54:04;;;;;;;7.78;6.12;;;11.50;80.80;;;;;;10980560;32;20049;-71
2023/03/13 06:00:07;;;;;;;9.15;7.03;;;11.70;80.40;;;;;;10978824;32;20014;-73
2023/03/13 06:06:14;;;;;;;8.40;6.55;;;11.90;79.80;;;;;;10976339;32;20019;-73
2023/03/13 06:12:18;;;;;;;8.82;5.87;;;12.10;80.30;;;;;;10980145;32;20074;-73
2023/03/13 06:18:21;;;;;;;5.55;4.90;;;12.20;81.20;;;;;;10979904;32;20018;-73
2023/03/13 06:24:23;;;;;;;9.63;7.47;;;12.40;81.60;;;;;;10976697;32;20407;-73
2023/03/13 06:30:26;;;;;;;8.40;5.40;;;12.60;82.20;;;;;;10962182;32;20053;-73
2023/03/13 06:36:28;;;;;;;8.35;5.47;;;12.70;82.70;;;;;;10980216;32;20430;-73
2023/03/13 06:42:30;;;;;;;9.80;7.70;;;12.80;82.60;;;;;;10979829;32;20019;-73
2023/03/13 06:48:32;;;;;;;10.40;7.68;;;12.70;82.00;;;;;;10976678;32;20030;-73
2023/03/13 06:54:35;;;;;;;7.70;6.15;;;12.70;82.50;;;;;;10980429;32;20019;-72
2023/03/13 07:00:39;;;;;;;12.40;7.85;;;12.80;82.40;;;;;;10980215;32;20336;-73
2023/03/13 07:06:41;;;;;;;9.23;7.72;;;12.90;82.80;;;;;;10955789;32;20089;-72
2023/03/13 07:12:43;;;;;;;12.82;8.18;;;12.80;83.20;;;;;;10977944;32;20404;-73
2023/03/13 07:18:45;;;;;;;11.98;8.20;;;12.90;83.40;;;;;;10931475;32;20027;-72
2023/03/13 07:24:47;;;;;;;15.68;10.23;;;12.90;83.10;;;;;;10941167;32;20042;-72
2023/03/13 07:30:49;;;;;;;9.60;7.03;;;12.70;83.40;;;;;;10978145;32;20010;-72
2023/03/13 07:36:51;;;;;;;10.38;7.68;;;12.80;83.70;;;;;;10964101;32;20089;-72
2023/03/13 07:42:54;;;;;;;8.70;6.22;;;13.10;83.60;;;;;;10974347;32;20045;-72
2023/03/13 07:48:57;;;;;;;17.35;8.75;;;13.10;84.40;;;;;;10971201;32;20023;-73
2023/03/13 07:54:59;;;;;;;11.00;7.87;;;13.20;84.20;;;;;;10966797;32;20027;-72
2023/03/13 08:01:11;;;;;;;7.97;6.93;;;13.30;85.10;;;;;;10985953;32;20018;-70
2023/03/13 08:07:13;;;;;;;7.05;5.82;;;13.50;85.00;;;;;;10985719;32;20053;-70
2023/03/13 08:13:15;;;;;;;8.90;7.03;;;13.20;84.60;;;;;;10983296;32;20026;-71
2023/03/13 08:19:17;;;;;;;7.75;5.62;;;13.30;85.30;;;;;;10983387;32;20014;-70
2023/03/13 08:25:19;;;;;;;8.63;4.60;;;13.30;85.30;;;;;;10968327;32;20198;-70
2023/03/13 08:31:24;;;;;;;5.75;4.15;;;13.60;85.30;;;;;;10985708;27;20023;-70
2023/03/13 08:37:26;;;;;;;5.68;4.22;;;13.70;84.90;;;;;;10982414;32;20010;-70
2023/03/13 08:43:28;;;;;;;8.05;5.18;;;13.80;84.80;;;;;;10980568;32;20019;-70
2023/03/13 08:49:30;;;;;;;6.95;4.55;;;13.70;84.50;;;;;;10984187;32;20045;-70
2023/03/13 08:55:32;;;;;;;6.65;4.37;;;13.60;84.50;;;;;;10964537;32;20066;-71
2023/03/13 09:01:35;;;;;;;12.90;5.57;;;13.70;84.50;;;;;;10983131;32;20037;-71
2023/03/13 09:07:37;;;;;;;7.93;4.90;;;13.90;84.70;;;;;;10980246;32;20019;-70
2023/03/13 09:13:43;;;;;;;4.93;3.90;;;13.90;84.90;;;;;;10980744;32;20031;-71
2023/03/13 09:19:45;;;;;;;7.62;4.45;;;13.90;84.70;;;;;;10968961;32;20014;-71
2023/03/13 09:25:48;;;;;;;7.87;4.37;;;13.90;84.90;;;;;;10979791;32;20006;-71
2023/03/13 09:31:50;;;;;;;5.40;4.07;;;14.00;84.80;;;;;;10981259;32;20022;-71
2023/03/13 09:37:52;;;;;;;8.13;6.68;;;14.00;84.60;;;;;;10981175;32;20343;-71
2023/03/13 09:44:13;;;;;;;8.20;5.85;;;14.20;85.20;;;;;;10953967;32;20043;-71
2023/03/13 09:50:33;;;;;;;7.82;4.87;;;14.20;84.00;;;;;;10980209;32;20045;-71
2023/03/13 09:56:50;;;;;;;4.60;3.42;;;14.20;84.30;;;;;;10978251;32;20018;-71
2023/03/13 10:03:10;;;;;;;6.12;3.80;;;14.30;84.80;;;;;;10968824;32;20348;-71
2023/03/13 10:09:21;;;;;;;4.22;3.17;;;14.60;84.20;;;;;;11013604;32;20049;-71
2023/03/13 10:16:02;;;;;;;6.10;3.55;;;14.60;83.80;;;;;;11004295;32;20460;-71
2023/03/13 10:22:13;;;;;;;9.52;4.50;;;14.60;82.70;;;;;;11018017;32;20041;-71
2023/03/13 10:28:19;;;;;;;5.10;3.25;;;14.60;82.00;;;;;;11017641;32;20022;-71
2023/03/13 10:34:21;;;;;;;7.70;3.25;;;14.70;82.60;;;;;;11018026;32;20023;-71
2023/03/13 10:40:42;;;;;;;4.72;2.35;;;15.00;82.90;;;;;;11015998;32;20429;-71
2023/03/13 10:46:47;;;;;;;3.85;2.78;;;15.30;83.20;;;;;;11003849;32;20018;-71
2023/03/13 10:52:50;;;;;;;5.97;3.60;;;15.50;82.80;;;;;;11014649;32;20029;-73
2023/03/13 10:58:52;;;;;;;4.97;3.40;;;15.60;81.40;;;;;;11019080;32;20290;-73
2023/03/13 11:04:56;;;;;;;3.85;2.35;;;15.60;81.10;;;;;;11017919;32;20041;-73
2023/03/13 11:11:01;;;;;;;2.28;1.95;;;15.80;80.80;;;;;;11002150;32;20018;-73
2023/03/13 11:17:21;;;;;;;3.72;2.28;;;16.10;80.40;;;;;;11003370;32;20068;-73
2023/03/13 11:23:44;;;;;;;1.83;1.60;;;16.30;80.70;;;;;;11023930;32;20045;-73
2023/03/13 11:30:23;;;;;;;6.05;3.10;;;16.50;80.50;;;;;;11024135;32;20041;-73
2023/03/13 11:36:28;;;;;;;4.03;2.80;;;16.80;79.70;;;;;;11020616;32;20031;-73
2023/03/13 11:42:46;;;;;;;4.68;2.53;;;16.90;77.90;;;;;;11022418;32;20045;-73
2023/03/13 11:49:14;;;;;;;5.32;2.87;;;16.90;78.70;;;;;;11022380;32;20336;-73
2023/03/13 11:55:45;;;;;;;5.43;2.62;;;16.80;79.70;;;;;;10943755;32;20020;-73
2023/03/13 12:02:04;;;;;;;8.27;3.75;;;16.90;79.70;;;;;;10830050;32;20052;-73
2023/03/13 12:08:16;;;;;;;6.28;3.50;;;16.80;79.20;;;;;;10828795;32;20016;-73
2023/03/13 12:14:29;;;;;;;3.12;2.17;;;16.70;79.40;;;;;;10764573;32;20067;-73
2023/03/13 12:20:49;;;;;;;3.58;2.67;;;16.50;81.80;;;;;;10752455;33;20024;-73
2023/03/13 12:26:58;;;;;;;2.37;1.73;;;16.60;81.30;;;;;;10757645;33;20009;-73
2023/03/13 12:33:49;;;;;;;2.72;1.67;;;16.70;80.30;;;;;;10790704;33;20036;-73
2023/03/13 12:40:22;;;;;;;8.63;3.25;;;17.00;80.30;;;;;;10830547;32;20147;-73
2023/03/13 12:46:37;;;;;;;3.10;2.03;;;17.30;79.70;;;;;;10826659;32;20020;-73
2023/03/13 12:53:09;;;;;;;6.90;2.10;;;17.40;76.10;;;;;;10830116;32;20587;-73
2023/03/13 12:59:25;;;;;;;5.60;2.25;;;17.60;74.40;;;;;;10828255;32;20016;-73
2023/03/13 13:05:27;;;;;;;7.70;3.35;;;17.50;72.20;;;;;;10812052;32;20031;-73
2023/03/13 13:11:33;;;;;;;6.55;2.97;;;17.60;73.10;;;;;;10841745;32;20034;-71
2023/03/13 13:17:56;;;;;;;2.33;1.62;;;17.80;71.50;;;;;;10945201;32;20041;-71
2023/03/13 13:24:36;;;;;;;8.07;2.95;;;17.80;70.80;;;;;;10914765;32;20352;-71
2023/03/13 13:30:38;;;;;;;3.95;2.37;;;18.00;71.60;;;;;;10941569;32;20347;-71
2023/03/13 13:36:41;;;;;;;6.18;3.50;;;18.10;68.60;;;;;;10943846;32;20037;-71
2023/03/13 13:42:49;;;;;;;12.37;4.28;;;18.20;69.30;;;;;;10941198;32;20039;-71
2023/03/13 13:49:06;;;;;;;7.10;3.75;;;18.10;67.60;;;;;;10944462;32;20015;-71
2023/03/13 13:55:27;;;;;;;10.05;4.32;;;17.70;67.70;;;;;;10940368;32;20023;-71
2023/03/13 14:01:30;;;;;;;7.55;3.95;;;17.50;70.60;;;;;;10940854;32;20015;-71
2023/03/13 14:07:38;;;;;;;6.07;3.03;;;17.50;70.70;;;;;;10939266;32;20405;-71
2023/03/13 14:13:41;;;;;;;7.05;3.33;;;17.60;71.00;;;;;;10942478;32;20026;-71
2023/03/13 14:19:43;;;;;;;4.03;2.25;;;17.70;71.60;;;;;;10928545;32;20456;-71
2023/03/13 14:25:48;;;;;;;4.35;2.65;;;17.80;71.10;;;;;;10938745;32;20019;-71
2023/03/13 14:31:53;;;;;;;7.28;3.30;;;18.10;70.90;;;;;;10928318;32;20031;-71
2023/03/13 14:38:01;;;;;;;6.55;2.87;;;18.20;69.70;;;;;;10976339;32;20018;-71
2023/03/13 14:44:15;;;;;;;7.50;2.60;;;18.20;69.40;;;;;;10980452;32;20046;-71
2023/03/13 14:50:22;;;;;;;4.12;2.60;;;18.20;70.40;;;;;;10976330;32;20014;-71
2023/03/13 14:56:41;;;;;;;3.83;2.05;;;18.20;69.90;;;;;;10961061;32;20359;-71
2023/03/13 15:02:43;;;;;;;3.75;1.95;;;18.20;69.20;;;;;;10931351;32;20070;-71
2023/03/13 15:08:48;;;;;;;2.45;1.65;;;18.00;69.90;;;;;;10978593;32;20035;-71
2023/03/13 15:14:51;;;;;;;3.40;1.90;;;18.00;70.90;;;;;;10982327;32;20045;-71
2023/03/13 15:20:57;;;;;;;2.12;1.45;;;18.10;70.90;;;;;;10971658;32;20084;-71
2023/03/13 15:26:59;;;;;;;9.40;2.80;;;18.40;69.70;;;;;;10986809;32;20434;-71
2023/03/13 15:33:02;;;;;;;4.03;2.12;;;18.70;69.10;;;;;;10984725;32;20056;-71
2023/03/13 15:39:15;;;;;;;5.30;3.28;;;18.00;70.50;;;;;;10967408;32;20066;-71
2023/03/13 15:45:17;;;;;;;3.95;2.30;;;18.00;71.40;;;;;;10985422;32;20047;-71
2023/03/13 15:51:20;;;;;;;4.37;2.00;;;18.10;71.90;;;;;;10971704;32;20027;-71
2023/03/13 15:57:24;;;;;;;11.88;2.80;;;17.90;72.40;;;;;;10986257;32;20411;-71
2023/03/13 16:03:28;;;;;;;4.82;2.90;;;17.80;72.40;;;;;;10986598;32;20019;-71
2023/03/13 16:09:30;;;;;;;2.97;2.12;;;18.20;71.90;;;;;;10983673;32;20018;-71
2023/03/13 16:15:32;;;;;;;3.55;2.10;;;19.00;71.80;;;;;;10981471;32;20050;-71
2023/03/13 16:21:35;;;;;;;6.10;3.37;;;19.00;71.70;;;;;;10985621;32;20037;-71
2023/03/13 16:27:38;;;;;;;3.45;2.25;;;18.80;72.50;;;;;;10970045;32;20057;-71
2023/03/13 16:33:40;;;;;;;5.37;2.33;;;19.10;72.00;;;;;;10971053;27;20042;-71
2023/03/13 16:39:43;;;;;;;4.50;2.10;;;19.00;71.50;;;;;;10969743;32;20336;-71
2023/03/13 16:45:46;;;;;;;3.80;2.62;;;18.60;72.60;;;;;;10983731;32;20324;-71
2023/03/13 16:51:48;;;;;;;8.73;4.15;;;18.20;73.50;;;;;;10970447;32;20049;-71
2023/03/13 16:57:53;;;;;;;6.07;3.17;;;17.70;74.00;;;;;;10983347;32;20348;-71
2023/03/13 17:03:57;;;;;;;9.65;2.92;;;17.30;75.40;;;;;;10982657;32;20019;-71
2023/03/13 17:09:59;;;;;;;9.27;3.60;;;17.00;75.70;;;;;;10982053;32;20351;-71
2023/03/13 17:16:01;;;;;;;7.12;4.37;;;17.00;75.70;;;;;;10991442;32;20026;-71
2023/03/13 17:22:04;;;;;;;8.40;3.35;;;16.80;75.90;;;;;;10978626;32;20100;-71
2023/03/13 17:28:12;;;;;;;4.12;2.87;;;16.70;76.20;;;;;;10978680;32;20019;-71
2023/03/13 17:34:15;;;;;;;;;;;16.50;76.60;;;;;;10968014;32;20061;-71
2023/03/13 17:40:21;;;;;;;5.40;3.62;;;16.40;76.90;;;;;;10969717;32;19922;-71
2023/03/13 17:46:46;;;;;;;6.68;3.42;;;16.30;77.10;;;;;;10929866;32;20062;-71
2023/03/13 17:52:49;;;;;;;8.93;5.18;;;16.20;77.30;;;;;;10943882;32;20019;-71
2023/03/13 17:58:56;;;;;;;7.35;4.22;;;16.20;77.40;;;;;;10929429;32;20302;-71
2023/03/13 18:04:59;;;;;;;7.45;3.67;;;16.10;77.70;;;;;;10931436;32;20042;-71
2023/03/13 18:11:01;;;;;;;5.72;3.95;;;16.10;77.80;;;;;;10943225;32;20396;-71
2023/03/13 18:17:12;;;;;;;5.45;3.60;;;16.00;77.90;;;;;;10942435;32;20058;-71
2023/03/13 18:23:14;;;;;;;5.70;3.67;;;16.00;77.90;;;;;;10942857;32;20308;-71
2023/03/13 18:29:24;;;;;;;7.45;4.87;;;16.00;78.00;;;;;;10941548;32;20026;-70
2023/03/13 18:35:26;;;;;;;6.68;4.57;;;16.10;78.10;;;;;;10938923;32;20405;-71
2023/03/13 18:41:29;;;;;;;7.82;4.68;;;16.20;78.10;;;;;;10941956;32;20050;-71
2023/03/13 18:47:31;;;;;;;9.32;6.28;;;16.20;78.10;;;;;;10927654;32;20034;-71
2023/03/13 18:53:33;;;;;;;8.77;6.20;;;16.30;78.30;;;;;;10971357;32;20034;-71
2023/03/13 19:00:11;;;;;;;7.15;4.93;;;16.50;79.40;;;;;;10978901;32;20041;-73
2023/03/13 19:06:25;;;;;;;9.05;5.82;;;16.70;79.60;;;;;;10964090;32;20068;-73
2023/03/13 19:12:28;;;;;;;9.70;7.03;;;16.70;79.40;;;;;;10975186;32;20050;-73
2023/03/13 19:18:30;;;;;;;8.70;6.10;;;16.70;79.10;;;;;;10965319;32;20034;-71
2023/03/13 19:24:32;;;;;;;8.90;6.68;;;16.50;79.10;;;;;;10966087;32;20393;-71
2023/03/13 19:30:34;;;;;;;14.55;10.35;;;16.30;79.40;;;;;;10979338;32;20112;-73
2023/03/13 19:36:44;;;;;;;22.35;13.95;;;16.40;79.40;;;;;;10977443;32;20061;-71
2023/03/13 19:42:46;;;;;;;17.87;12.55;;;16.30;79.30;;;;;;10971592;32;20328;-73
2023/03/13 19:48:51;;;;;;;16.42;10.93;;;16.40;79.40;;;;;;10985961;32;20022;-71
2023/03/13 19:54:54;;;;;;;23.62;12.85;;;16.50;80.40;;;;;;10985296;32;20027;-71
2023/03/13 20:00:56;;;;;;;15.13;11.35;;;16.50;80.60;;;;;;10966789;32;20026;-71
2023/03/13 20:07:01;;;;;;;13.38;10.55;;;16.40;80.30;;;;;;10970996;32;20042;-71
2023/03/13 20:13:03;;;;;;;10.90;9.45;;;16.40;81.30;;;;;;10983802;32;20324;-71
2023/03/13 20:19:05;;;;;;;23.12;14.27;;;16.40;82.50;;;;;;10985589;32;20015;-71
2023/03/13 20:25:08;;;;;;;18.75;14.50;;;16.30;81.90;;;;;;10985426;32;20019;-73
2023/03/13 20:31:11;;;;;;;15.73;13.95;;;16.40;82.00;;;;;;10983855;32;20176;-73
2023/03/13 20:37:13;;;;;;;18.95;14.48;;;16.30;81.50;;;;;;10984381;32;20393;-73
2023/03/13 20:43:15;;;;;;;16.37;14.25;;;16.30;81.80;;;;;;10983494;32;20056;-73
2023/03/13 20:49:17;;;;;;;14.38;12.00;;;16.20;81.70;;;;;;10983939;32;20023;-71
2023/03/13 20:55:20;;;;;;;14.25;10.43;;;16.20;81.50;;;;;;10983280;32;20034;-70
2023/03/13 21:01:23;;;;;;;15.98;12.98;;;16.10;81.50;;;;;;10983450;32;20033;-71
2023/03/13 21:07:26;;;;;;;14.90;12.30;;;16.20;81.60;;;;;;10982491;32;20360;-71
2023/03/13 21:13:28;;;;;;;14.52;13.00;;;16.20;81.40;;;;;;10982986;32;20018;-71
2023/03/13 21:19:30;;;;;;;12.98;11.48;;;16.20;81.50;;;;;;10968239;32;20030;-71
2023/03/13 21:25:33;;;;;;;15.25;12.77;;;16.20;81.70;;;;;;10981997;32;20096;-71
2023/03/13 21:31:35;;;;;;;14.50;12.32;;;16.20;81.70;;;;;;10967211;32;20348;-71
2023/03/13 21:37:37;;;;;;;11.88;10.20;;;16.10;81.80;;;;;;10982644;32;20019;-73
2023/03/13 21:43:40;;;;;;;15.80;12.15;;;16.10;82.00;;;;;;10981290;32;20023;-73
2023/03/13 21:49:43;;;;;;;13.25;10.60;;;16.10;82.20;;;;;;10982092;32;20316;-73
2023/03/13 21:55:48;;;;;;;15.23;12.18;;;16.00;82.00;;;;;;10980195;32;20049;-73
2023/03/13 22:01:51;;;;;;;14.65;12.20;;;15.90;82.80;;;;;;10981663;32;20015;-71
2023/03/13 22:07:54;;;;;;;12.48;10.55;;;15.90;82.80;;;;;;10953746;32;20069;-70
2023/03/13 22:13:56;;;;;;;14.77;11.27;;;15.90;82.60;;;;;;10964123;32;20049;-70
2023/03/13 22:19:58;;;;;;;11.50;8.88;;;15.70;82.60;;;;;;10980103;32;20018;-71
2023/03/13 22:26:00;;;;;;;12.95;8.70;;;15.70;82.60;;;;;;10965898;32;20049;-73
2023/03/13 22:32:03;;;;;;;10.57;8.88;;;15.70;82.40;;;;;;10976504;32;20027;-71
2023/03/13 22:38:05;;;;;;;9.00;7.20;;;15.70;82.20;;;;;;10965684;32;20041;-70
2023/03/13 22:44:08;;;;;;;9.88;7.37;;;15.80;82.10;;;;;;10975776;32;20034;-70
2023/03/13 22:50:11;;;;;;;9.10;6.78;;;15.80;82.20;;;;;;10980515;32;20304;-73
2023/03/13 22:56:13;;;;;;;9.02;7.18;;;15.80;82.60;;;;;;10979116;32;20023;-73
2023/03/13 23:02:15;;;;;;;10.73;7.35;;;15.80;82.40;;;;;;10965407;32;20061;-70
2023/03/13 23:08:17;;;;;;;11.77;7.78;;;15.80;82.60;;;;;;10979157;32;20023;-71
2023/03/13 23:14:19;;;;;;;11.98;6.10;;;15.80;82.70;;;;;;10980225;32;20050;-73
2023/03/13 23:20:21;;;;;;;9.32;7.03;;;15.70;82.80;;;;;;10968668;32;20068;-73
2023/03/13 23:26:23;;;;;;;8.98;6.87;;;15.70;82.80;;;;;;10987514;32;20046;-73
2023/03/13 23:32:26;;;;;;;10.80;8.20;;;15.50;82.90;;;;;;10762146;32;7223940;-73
2023/03/13 23:38:28;;;;;;;7.85;5.22;;;15.50;83.10;;;;;;10972425;32;20037;-73
2023/03/13 23:44:30;;;;;;;7.78;6.15;;;15.50;82.80;;;;;;10959289;32;20043;-72
2023/03/13 23:50:32;;;;;;;7.60;4.68;;;15.30;83.10;;;;;;10985402;32;20052;-73
2023/03/13 23:56:34;;;;;;;12.40;8.73;;;15.30;83.00;;;;;;10985258;32;20089;-73
